createdAt,value
2022-11-14T00:03:02.378Z,22.70
2022-11-14T00:06:09.917Z,20.07
2022-11-14T00:09:16.553Z,16.87
2022-11-14T00:12:24.166Z,20.30
2022-11-14T00:15:30.982Z,17.63
2022-11-14T00:18:37.221Z,17.77
2022-11-14T00:21:43.287Z,16.43
2022-11-14T00:24:49.651Z,36.77
2022-11-14T00:27:59.849Z,38.33
2022-11-14T00:31:06.450Z,16.80
2022-11-14T00:34:12.785Z,19.67
2022-11-14T00:37:19.046Z,19.83
2022-11-14T00:40:25.281Z,15.87
2022-11-14T00:43:32.712Z,17.20
2022-11-14T00:46:39.753Z,21.57
2022-11-14T00:49:45.586Z,20.00
2022-11-14T00:52:51.658Z,20.53
2022-11-14T00:55:57.688Z,18.27
2022-11-14T00:59:05.594Z,14.57
2022-11-14T01:02:11.762Z,15.40
2022-11-14T01:05:18.140Z,24.93
2022-11-14T01:08:24.349Z,20.73
2022-11-14T01:11:30.620Z,16.80
2022-11-14T01:14:38.405Z,13.60
2022-11-14T01:17:44.848Z,17.17
2022-11-14T01:20:51.299Z,17.07
2022-11-14T01:23:57.891Z,21.87
2022-11-14T01:27:04.086Z,20.47
2022-11-14T01:30:12.473Z,21.77
2022-11-14T01:33:18.879Z,12.50
2022-11-14T01:36:25.213Z,14.90
2022-11-14T01:39:31.624Z,15.07
2022-11-14T01:42:38.022Z,18.13
2022-11-14T01:45:56.052Z,18.90
2022-11-14T01:49:06.516Z,14.03
2022-11-14T01:52:16.561Z,14.77
2022-11-14T01:55:22.741Z,12.87
2022-11-14T01:58:31.004Z,15.87
2022-11-14T02:01:45.900Z,16.13
2022-11-14T02:04:57.207Z,15.50
2022-11-14T02:08:03.562Z,18.50
2022-11-14T02:11:11.967Z,13.70
2022-11-14T02:14:18.584Z,18.27
2022-11-14T02:17:30.628Z,11.97
2022-11-14T02:20:43.326Z,18.43
2022-11-14T02:23:49.527Z,12.33
2022-11-14T02:26:55.657Z,10.87
2022-11-14T02:30:05.733Z,11.97
2022-11-14T02:33:12.040Z,15.73
2022-11-14T02:36:19.610Z,13.07
2022-11-14T02:39:26.383Z,13.93
2022-11-14T02:42:32.767Z,13.07
2022-11-14T02:45:38.737Z,15.73
2022-11-14T02:48:44.745Z,15.33
2022-11-14T02:51:52.696Z,23.53
2022-11-14T02:54:59.153Z,15.47
2022-11-14T02:58:05.442Z,13.77
2022-11-14T03:01:20.682Z,14.70
2022-11-14T03:04:27.606Z,10.63
2022-11-14T03:07:35.226Z,14.47
2022-11-14T03:10:41.693Z,16.20
2022-11-14T03:13:47.675Z,16.53
2022-11-14T03:16:56.520Z,10.73
2022-11-14T03:20:03.125Z,11.00
2022-11-14T03:23:10.798Z,12.60
2022-11-14T03:26:17.523Z,11.07
2022-11-14T03:29:23.811Z,17.03
2022-11-14T03:32:29.971Z,10.17
2022-11-14T03:35:36.348Z,12.50
2022-11-14T03:38:44.690Z,17.63
2022-11-14T03:41:51.146Z,11.73
2022-11-14T03:44:57.158Z,18.83
2022-11-14T03:48:03.457Z,15.00
2022-11-14T03:51:09.750Z,17.83
2022-11-14T03:54:17.497Z,13.87
2022-11-14T03:57:23.973Z,13.87
2022-11-14T04:00:30.510Z,20.40
2022-11-14T04:03:36.993Z,17.73
2022-11-14T04:06:43.152Z,17.17
2022-11-14T04:09:52.102Z,16.60
2022-11-14T04:12:58.613Z,18.60
2022-11-14T04:16:05.284Z,19.83
2022-11-14T04:19:11.675Z,22.50
2022-11-14T04:22:17.899Z,36.70
2022-11-14T04:25:25.626Z,58.13
2022-11-14T04:28:32.012Z,30.33
2022-11-14T04:31:38.605Z,90.17
2022-11-14T04:34:44.515Z,22.17
2022-11-14T04:37:50.710Z,19.13
2022-11-14T04:40:58.104Z,16.03
2022-11-14T04:44:04.584Z,13.17
2022-11-14T04:47:10.614Z,8.83
2022-11-14T04:50:17.252Z,12.87
2022-11-14T04:53:23.897Z,27.87
2022-11-14T04:56:31.460Z,12.10
2022-11-14T04:59:38.021Z,17.43
2022-11-14T05:02:44.194Z,10.47
2022-11-14T05:05:50.518Z,22.77
2022-11-14T05:08:56.624Z,21.07
2022-11-14T05:12:04.331Z,19.60
2022-11-14T05:15:11.647Z,22.03
2022-11-14T05:18:18.157Z,51.57
2022-11-14T05:21:24.331Z,12.20
2022-11-14T05:24:30.663Z,23.00
2022-11-14T05:27:38.334Z,19.67
2022-11-14T05:30:44.529Z,20.10
2022-11-14T05:33:51.654Z,17.80
2022-11-14T05:36:57.785Z,22.90
2022-11-14T05:40:05.059Z,20.80
2022-11-14T05:43:12.901Z,22.07
2022-11-14T05:46:19.306Z,33.87
2022-11-14T05:49:25.764Z,36.40
2022-11-14T05:52:33.198Z,21.10
2022-11-14T05:55:39.509Z,19.03
2022-11-14T05:58:47.184Z,21.10
2022-11-14T06:01:53.432Z,29.50
2022-11-14T06:04:59.842Z,25.87
2022-11-14T06:08:06.438Z,28.53
2022-11-14T06:11:15.333Z,27.23
2022-11-14T06:14:23.466Z,21.63
2022-11-14T06:17:30.159Z,21.27
2022-11-14T06:20:37.358Z,26.20
2022-11-14T06:23:44.034Z,22.43
2022-11-14T06:26:50.470Z,16.63
2022-11-14T06:29:58.438Z,15.20
2022-11-14T06:33:04.426Z,17.60
2022-11-14T06:36:11.418Z,24.60
2022-11-14T06:39:17.928Z,27.90
2022-11-14T06:42:24.172Z,22.90
2022-11-14T06:45:31.630Z,35.20
2022-11-14T06:48:38.021Z,49.20
2022-11-14T06:51:43.977Z,30.00
2022-11-14T06:54:50.175Z,51.77
2022-11-14T06:57:56.486Z,44.93
2022-11-14T07:01:11.898Z,31.07
2022-11-14T07:04:18.219Z,23.93
2022-11-14T07:07:24.516Z,35.60
2022-11-14T07:10:32.914Z,35.83
2022-11-14T07:13:40.108Z,20.87
2022-11-14T07:16:48.211Z,28.70
2022-11-14T07:19:54.459Z,20.40
2022-11-14T07:23:00.906Z,28.57
2022-11-14T07:26:08.677Z,19.47
2022-11-14T07:29:14.786Z,10.37
2022-11-14T07:32:22.209Z,15.97
2022-11-14T07:35:28.485Z,16.53
2022-11-14T07:38:35.639Z,22.03
2022-11-14T07:41:42.154Z,22.53
2022-11-14T07:44:48.391Z,15.73
2022-11-14T07:47:58.305Z,18.07
2022-11-14T07:51:07.050Z,12.20
2022-11-14T07:54:13.349Z,10.80
2022-11-14T07:57:19.825Z,9.23
2022-11-14T08:00:25.878Z,9.63
2022-11-14T08:03:33.359Z,10.33
2022-11-14T08:06:39.692Z,13.50
2022-11-14T08:09:45.931Z,8.30
2022-11-14T08:13:29.813Z,12.00
2022-11-14T08:16:26.633Z,12.83
2022-11-14T08:19:34.441Z,13.40
2022-11-14T08:22:40.772Z,14.57
2022-11-14T08:25:46.847Z,21.63
2022-11-14T08:28:54.587Z,11.27
2022-11-14T08:32:00.595Z,20.77
2022-11-14T08:35:08.974Z,16.97
2022-11-14T08:38:15.048Z,20.53
2022-11-14T08:41:22.586Z,10.63
2022-11-14T08:44:28.663Z,13.87
2022-11-14T08:47:35.255Z,16.20
2022-11-14T08:50:43.091Z,16.53
2022-11-14T08:53:49.370Z,21.87
2022-11-14T08:56:55.721Z,20.30
2022-11-14T09:00:02.007Z,20.00
2022-11-14T09:03:09.619Z,17.90
2022-11-14T09:06:17.109Z,31.30
2022-11-14T09:09:23.521Z,21.67
2022-11-14T09:12:29.845Z,17.63
2022-11-14T09:15:36.035Z,18.43
2022-11-14T09:18:42.618Z,14.93
2022-11-14T09:21:50.390Z,16.80
2022-11-14T09:24:56.915Z,12.40
2022-11-14T09:28:06.781Z,10.60
2022-11-14T09:31:14.566Z,11.30
2022-11-14T09:34:20.794Z,13.67
2022-11-14T09:37:28.421Z,5.23
2022-11-14T09:40:49.278Z,8.33
2022-11-14T09:44:22.988Z,8.80
2022-11-14T09:47:31.944Z,11.97
2022-11-14T09:50:43.900Z,11.77
2022-11-14T09:53:58.640Z,13.93
2022-11-14T09:57:04.974Z,9.10
2022-11-14T10:00:16.132Z,8.33
2022-11-14T10:03:28.830Z,12.30
2022-11-14T10:06:42.037Z,8.13
2022-11-14T10:10:04.577Z,8.80
2022-11-14T10:13:22.508Z,12.90
2022-11-14T10:16:40.546Z,14.60
2022-11-14T10:19:52.992Z,9.33
2022-11-14T10:23:26.869Z,8.00
2022-11-14T10:26:40.485Z,10.07
2022-11-14T10:30:06.684Z,9.53
2022-11-14T10:33:24.356Z,10.07
2022-11-14T10:36:47.521Z,8.87
2022-11-14T10:39:55.937Z,11.03
2022-11-14T10:43:12.328Z,8.37
2022-11-14T10:46:22.186Z,12.03
2022-11-14T10:49:32.528Z,12.87
2022-11-14T10:52:43.849Z,9.63
2022-11-14T10:56:07.936Z,9.37
2022-11-14T10:59:15.980Z,11.13
2022-11-14T11:02:22.356Z,15.13
2022-11-14T11:05:31.910Z,14.17
2022-11-14T11:09:00.935Z,10.77
2022-11-14T11:12:09.856Z,10.77
2022-11-14T11:15:20.960Z,10.60
2022-11-14T11:18:30.361Z,8.03
2022-11-14T11:21:49.290Z,9.17
2022-11-14T11:24:55.447Z,10.90
2022-11-14T11:28:08.120Z,13.50
2022-11-14T11:31:15.896Z,19.93
2022-11-14T11:34:26.479Z,7.77
2022-11-14T11:37:37.041Z,9.77
2022-11-14T11:40:45.472Z,8.13
2022-11-14T11:43:58.493Z,8.77
2022-11-14T11:47:12.396Z,8.03
2022-11-14T11:50:21.705Z,9.53
2022-11-14T11:53:35.786Z,6.57
2022-11-14T11:56:45.435Z,13.43
2022-11-14T12:00:00.629Z,9.57
2022-11-14T12:03:13.788Z,8.17
2022-11-14T12:06:25.007Z,14.63
2022-11-14T12:10:08.826Z,16.40
2022-11-14T12:13:34.190Z,12.73
2022-11-14T12:17:09.772Z,7.33
2022-11-14T12:20:45.589Z,8.27
2022-11-14T12:24:11.042Z,8.03
2022-11-14T12:27:32.017Z,12.40
2022-11-14T12:30:40.840Z,8.27
2022-11-14T12:33:54.628Z,6.33
2022-11-14T12:37:01.360Z,8.60
2022-11-14T12:40:20.086Z,8.57
2022-11-14T12:43:36.700Z,6.73
2022-11-14T12:47:13.521Z,8.30
2022-11-14T12:50:35.309Z,8.23
2022-11-14T12:53:43.518Z,10.17
2022-11-14T12:57:10.337Z,16.90
2022-11-14T13:00:19.399Z,11.07
2022-11-14T13:03:39.841Z,13.00
2022-11-14T13:06:59.520Z,9.77
2022-11-14T13:10:15.645Z,13.60
2022-11-14T13:13:41.919Z,16.93
2022-11-14T13:17:06.606Z,21.20
2022-11-14T13:20:46.843Z,29.13
2022-11-14T13:23:57.355Z,15.13
2022-11-14T13:27:45.224Z,23.03
2022-11-14T13:31:20.602Z,27.87
2022-11-14T13:34:37.835Z,23.63
2022-11-14T13:38:16.410Z,17.43
2022-11-14T13:41:47.416Z,51.53
2022-11-14T13:45:27.445Z,21.83
2022-11-14T13:48:58.296Z,12.77
2022-11-14T13:52:05.732Z,17.03
2022-11-14T13:55:21.474Z,16.43
2022-11-14T13:58:48.947Z,15.60
2022-11-14T14:02:17.602Z,19.03
2022-11-14T14:05:37.736Z,17.03
2022-11-14T14:09:04.601Z,20.90
2022-11-14T14:12:34.929Z,13.73
2022-11-14T14:15:48.287Z,19.67
2022-11-14T14:19:04.749Z,19.03
2022-11-14T14:22:20.608Z,28.27
2022-11-14T14:25:35.608Z,65.07
2022-11-14T14:28:53.473Z,59.53
2022-11-14T14:32:08.432Z,32.97
2022-11-14T14:35:25.893Z,25.70
2022-11-14T14:38:35.826Z,18.00
2022-11-14T14:41:42.817Z,5.43
2022-11-14T14:44:50.058Z,8.07
2022-11-14T14:48:03.345Z,11.20
2022-11-14T14:51:15.560Z,10.40
2022-11-14T14:54:25.989Z,17.07
2022-11-14T14:57:32.561Z,15.53
2022-11-14T15:00:39.359Z,15.23
2022-11-14T15:03:50.963Z,6.83
2022-11-14T15:06:58.540Z,49.83
2022-11-14T15:10:09.056Z,39.87
2022-11-14T15:13:19.053Z,42.93
2022-11-14T15:16:26.606Z,40.10
2022-11-14T15:19:40.245Z,39.53
2022-11-14T15:23:03.602Z,52.50
2022-11-14T15:26:17.633Z,36.40
2022-11-14T15:29:25.329Z,57.63
2022-11-14T15:32:31.476Z,53.97
2022-11-14T15:35:39.276Z,50.53
2022-11-14T15:39:11.821Z,56.50
2022-11-14T15:42:29.895Z,59.00
2022-11-14T15:45:41.651Z,105.33
2022-11-14T15:48:48.465Z,100.50
2022-11-14T15:51:57.693Z,52.70
2022-11-14T15:55:05.003Z,56.03
2022-11-14T15:58:27.746Z,81.67
2022-11-14T16:01:34.958Z,73.13
2022-11-14T16:04:47.249Z,92.97
2022-11-14T16:07:54.179Z,86.90
2022-11-14T16:11:00.443Z,78.37
2022-11-14T16:14:07.955Z,56.80
2022-11-14T16:17:16.024Z,54.60
2022-11-14T16:20:23.731Z,45.27
2022-11-14T16:23:30.279Z,44.87
2022-11-14T16:26:38.184Z,81.30
2022-11-14T16:29:45.985Z,99.07
2022-11-14T16:32:53.413Z,93.57
2022-11-14T16:36:00.348Z,48.97
2022-11-14T16:39:11.453Z,57.93
2022-11-14T16:42:17.933Z,43.10
2022-11-14T16:45:26.659Z,59.40
2022-11-14T16:48:32.721Z,47.60
2022-11-14T16:51:47.644Z,46.10
2022-11-14T16:54:55.170Z,44.53
2022-11-14T16:58:01.466Z,84.43
2022-11-14T17:01:18.651Z,158.10
2022-11-14T17:04:27.195Z,116.47
2022-11-14T17:07:33.857Z,72.77
2022-11-14T17:10:43.331Z,78.57
2022-11-14T17:13:49.816Z,97.03
2022-11-14T17:17:04.945Z,41.37
2022-11-14T17:20:12.120Z,24.47
2022-11-14T17:23:18.233Z,78.33
2022-11-14T17:26:25.051Z,89.63
2022-11-14T17:29:31.666Z,60.00
2022-11-14T17:32:39.291Z,38.40
2022-11-14T17:35:45.724Z,79.50
2022-11-14T17:38:52.198Z,54.03
2022-11-14T17:41:58.308Z,63.80
2022-11-14T17:45:04.357Z,37.03
2022-11-14T17:48:13.987Z,35.73
2022-11-14T17:51:20.459Z,26.30
2022-11-14T17:54:26.363Z,29.40
2022-11-14T17:57:32.386Z,14.90
2022-11-14T18:00:38.844Z,25.77
2022-11-14T18:03:46.404Z,27.33
2022-11-14T18:06:52.740Z,41.73
2022-11-14T18:09:59.145Z,76.30
2022-11-14T18:13:05.749Z,277.60
2022-11-14T18:16:14.225Z,111.07
2022-11-14T18:19:21.860Z,196.83
2022-11-14T18:22:28.556Z,91.87
2022-11-14T18:25:34.894Z,58.50
2022-11-14T18:28:41.837Z,49.70
2022-11-14T18:31:48.469Z,41.30
2022-11-14T18:34:56.469Z,54.27
2022-11-14T18:38:02.646Z,83.37
2022-11-14T18:41:10.682Z,72.93
2022-11-14T18:44:17.193Z,66.03
2022-11-14T18:47:35.491Z,61.97
2022-11-14T18:50:43.458Z,74.20
2022-11-14T18:53:51.112Z,58.87
2022-11-14T18:56:58.570Z,54.60
2022-11-14T19:00:05.438Z,63.40
2022-11-14T19:03:25.356Z,76.93
2022-11-14T19:06:34.848Z,60.50
2022-11-14T19:09:41.014Z,80.97
2022-11-14T19:12:49.023Z,71.23
2022-11-14T19:15:55.141Z,84.87
2022-11-14T19:19:02.085Z,99.50
2022-11-14T19:22:09.696Z,80.47
2022-11-14T19:25:16.036Z,76.97
2022-11-14T19:28:25.875Z,59.53
2022-11-14T19:31:33.261Z,56.73
2022-11-14T19:34:39.349Z,61.87
2022-11-14T19:37:47.067Z,67.57
2022-11-14T19:40:53.136Z,67.50
2022-11-14T19:44:00.867Z,75.63
2022-11-14T19:47:07.134Z,59.57
2022-11-14T19:50:13.420Z,60.57
2022-11-14T19:53:21.138Z,36.27
2022-11-14T19:56:28.410Z,31.80
2022-11-14T19:59:34.923Z,68.60
2022-11-14T20:02:41.307Z,72.10
2022-11-14T20:05:47.682Z,40.87
2022-11-14T20:08:55.688Z,62.20
2022-11-14T20:12:03.073Z,61.00
2022-11-14T20:15:11.114Z,57.03
2022-11-14T20:18:17.997Z,53.43
2022-11-14T20:21:25.999Z,62.47
2022-11-14T20:24:33.937Z,54.70
2022-11-14T20:27:40.282Z,50.40
2022-11-14T20:30:46.962Z,29.23
2022-11-14T20:33:54.743Z,44.20
2022-11-14T20:37:16.428Z,56.43
2022-11-14T20:40:24.197Z,55.53
2022-11-14T20:43:31.104Z,31.93
2022-11-14T20:46:37.391Z,46.67
2022-11-14T20:49:44.432Z,61.37
2022-11-14T20:52:50.783Z,80.90
2022-11-14T20:55:58.248Z,81.87
2022-11-14T20:59:06.427Z,81.23
2022-11-14T21:02:14.638Z,74.23
2022-11-14T21:05:20.826Z,56.30
2022-11-14T21:08:27.276Z,80.53
2022-11-14T21:11:34.862Z,121.27
2022-11-14T21:14:41.222Z,183.13
2022-11-14T21:17:47.499Z,78.23
2022-11-14T21:21:00.105Z,72.93
2022-11-14T21:24:07.388Z,103.67
2022-11-14T21:27:14.969Z,179.23
2022-11-14T21:30:21.066Z,109.03
2022-11-14T21:33:27.472Z,57.97
2022-11-14T21:36:49.156Z,38.37
2022-11-14T21:39:55.525Z,43.87
2022-11-14T21:43:03.126Z,45.30
2022-11-14T21:46:10.742Z,88.83
2022-11-14T21:49:17.576Z,140.33
2022-11-14T21:52:24.196Z,76.33
2022-11-14T21:55:30.301Z,62.93
2022-11-14T21:58:38.253Z,96.27
2022-11-14T22:02:04.535Z,74.47
2022-11-14T22:05:10.880Z,76.20
2022-11-14T22:08:17.171Z,60.90
2022-11-14T22:11:23.751Z,58.70
2022-11-14T22:14:31.545Z,33.83
2022-11-14T22:17:37.744Z,25.83
2022-11-14T22:20:44.448Z,22.00
2022-11-14T22:23:54.043Z,24.20
2022-11-14T22:27:00.238Z,31.43
2022-11-14T22:30:08.909Z,29.40
2022-11-14T22:33:15.342Z,28.57
2022-11-14T22:36:23.741Z,32.27
2022-11-14T22:39:30.147Z,30.73
2022-11-14T22:42:36.770Z,33.97
2022-11-14T22:45:44.255Z,31.37
2022-11-14T22:48:51.312Z,33.90
2022-11-14T22:51:57.443Z,36.10
2022-11-14T22:55:03.988Z,32.83
2022-11-14T22:58:10.145Z,47.23
2022-11-14T23:01:21.463Z,36.53
2022-11-14T23:04:27.600Z,25.13
2022-11-14T23:07:33.700Z,19.10
2022-11-14T23:10:40.023Z,16.23
2022-11-14T23:13:47.632Z,14.67
2022-11-14T23:16:55.117Z,18.53
2022-11-14T23:20:01.536Z,30.77
2022-11-14T23:23:07.891Z,21.17
2022-11-14T23:26:16.277Z,21.50
2022-11-14T23:29:22.801Z,14.13
2022-11-14T23:32:30.491Z,13.57
2022-11-14T23:35:36.844Z,19.17
2022-11-14T23:38:43.257Z,14.20
2022-11-14T23:41:49.312Z,13.97
2022-11-14T23:44:55.357Z,17.37
2022-11-14T23:48:03.324Z,13.90
2022-11-14T23:51:10.169Z,15.20
2022-11-14T23:54:16.653Z,15.50
2022-11-14T23:57:22.740Z,15.23
